Washington, District of Columbia
Traffic Map
Current Weather Conditions
Washington, District of Columbia
Overcast Light Rain
Overcast
43°
Feels Like: 38°
Wind Chill: 38° Ceiling: 4900
Heat Index: 43° Visibility: 10mi
Dew Point: 36° Wind: 9mph
Humidity: 76% Direction: 190° (S)
Pressure: 30.14in Gusts: 0mph
Raw Report DataKDCA 050252Z 19008KT 10SM -RA OVC049 06/02 A3014 RMK AO2 SLP206 P0001 60001 T00610022 58014
Traffic Incident Summary
Active as of:
Severity:
Category:
InformationThere was an issue retrieving the traffic information for this location. Please try a different location or try again shortly.
Advertisements
Track Severe Weather on mobile